sensor_id;sensor_type;location;lat;lon;timestamp;P1;durP1;ratioP1;P2;durP2;ratioP2
14760;SDS011;7472;45.396;5.272;2023-12-28T00:02:21;9.43;;;6.53;;
14760;SDS011;7472;45.396;5.272;2023-12-28T00:04:48;11.85;;;8.05;;
14760;SDS011;7472;45.396;5.272;2023-12-28T00:07:15;14.75;;;8.63;;
14760;SDS011;7472;45.396;5.272;2023-12-28T00:09:43;11.50;;;7.32;;
14760;SDS011;7472;45.396;5.272;2023-12-28T00:12:10;11.50;;;7.90;;
14760;SDS011;7472;45.396;5.272;2023-12-28T00:14:39;9.15;;;7.85;;
14760;SDS011;7472;45.396;5.272;2023-12-28T00:17:06;9.18;;;6.82;;
14760;SDS011;7472;45.396;5.272;2023-12-28T00:19:34;17.05;;;8.32;;
14760;SDS011;7472;45.396;5.272;2023-12-28T00:22:01;9.82;;;7.30;;
14760;SDS011;7472;45.396;5.272;2023-12-28T00:24:28;13.88;;;7.07;;
14760;SDS011;7472;45.396;5.272;2023-12-28T00:26:56;10.77;;;6.93;;
14760;SDS011;7472;45.396;5.272;2023-12-28T00:29:23;10.73;;;7.22;;
14760;SDS011;7472;45.396;5.272;2023-12-28T00:31:52;10.05;;;6.85;;
14760;SDS011;7472;45.396;5.272;2023-12-28T00:34:19;8.07;;;6.70;;
14760;SDS011;7472;45.396;5.272;2023-12-28T00:36:47;14.27;;;6.93;;
14760;SDS011;7472;45.396;5.272;2023-12-28T00:39:14;18.88;;;6.97;;
14760;SDS011;7472;45.396;5.272;2023-12-28T00:41:41;11.60;;;6.93;;
14760;SDS011;7472;45.396;5.272;2023-12-28T00:44:09;16.50;;;9.20;;
14760;SDS011;7472;45.396;5.272;2023-12-28T00:46:36;16.70;;;9.80;;
14760;SDS011;7472;45.396;5.272;2023-12-28T00:49:05;9.40;;;7.30;;
14760;SDS011;7472;45.396;5.272;2023-12-28T00:51:33;9.65;;;6.22;;
14760;SDS011;7472;45.396;5.272;2023-12-28T00:54:00;9.88;;;6.72;;
14760;SDS011;7472;45.396;5.272;2023-12-28T00:56:28;8.43;;;6.40;;
14760;SDS011;7472;45.396;5.272;2023-12-28T00:58:55;9.52;;;6.47;;
14760;SDS011;7472;45.396;5.272;2023-12-28T01:01:22;9.88;;;6.68;;
14760;SDS011;7472;45.396;5.272;2023-12-28T01:03:50;10.02;;;6.50;;
14760;SDS011;7472;45.396;5.272;2023-12-28T01:06:18;8.75;;;6.30;;
14760;SDS011;7472;45.396;5.272;2023-12-28T01:08:46;10.23;;;7.20;;
14760;SDS011;7472;45.396;5.272;2023-12-28T01:11:13;10.23;;;6.97;;
14760;SDS011;7472;45.396;5.272;2023-12-28T01:13:41;14.35;;;7.15;;
14760;SDS011;7472;45.396;5.272;2023-12-28T01:16:08;11.32;;;6.43;;
14760;SDS011;7472;45.396;5.272;2023-12-28T01:18:36;11.05;;;6.68;;
14760;SDS011;7472;45.396;5.272;2023-12-28T01:21:03;9.57;;;6.63;;
14760;SDS011;7472;45.396;5.272;2023-12-28T01:23:32;12.20;;;6.80;;
14760;SDS011;7472;45.396;5.272;2023-12-28T01:25:59;7.57;;;5.72;;
14760;SDS011;7472;45.396;5.272;2023-12-28T01:28:27;10.45;;;6.85;;
14760;SDS011;7472;45.396;5.272;2023-12-28T01:30:55;11.13;;;5.38;;
14760;SDS011;7472;45.396;5.272;2023-12-28T01:33:22;10.27;;;6.10;;
14760;SDS011;7472;45.396;5.272;2023-12-28T01:35:49;10.70;;;6.53;;
14760;SDS011;7472;45.396;5.272;2023-12-28T01:38:16;11.80;;;6.13;;
14760;SDS011;7472;45.396;5.272;2023-12-28T01:40:45;12.02;;;5.50;;
14760;SDS011;7472;45.396;5.272;2023-12-28T01:43:12;10.65;;;6.22;;
14760;SDS011;7472;45.396;5.272;2023-12-28T01:45:39;8.07;;;6.47;;
14760;SDS011;7472;45.396;5.272;2023-12-28T01:48:07;12.27;;;6.53;;
14760;SDS011;7472;45.396;5.272;2023-12-28T01:50:35;9.73;;;6.97;;
14760;SDS011;7472;45.396;5.272;2023-12-28T01:53:02;8.05;;;6.63;;
14760;SDS011;7472;45.396;5.272;2023-12-28T01:55:30;14.27;;;7.10;;
14760;SDS011;7472;45.396;5.272;2023-12-28T01:57:59;8.10;;;6.63;;
14760;SDS011;7472;45.396;5.272;2023-12-28T02:00:26;8.30;;;6.80;;
14760;SDS011;7472;45.396;5.272;2023-12-28T02:02:54;12.05;;;6.85;;
14760;SDS011;7472;45.396;5.272;2023-12-28T02:05:22;8.85;;;6.32;;
14760;SDS011;7472;45.396;5.272;2023-12-28T02:07:49;12.07;;;6.57;;
14760;SDS011;7472;45.396;5.272;2023-12-28T02:10:16;8.63;;;6.40;;
14760;SDS011;7472;45.396;5.272;2023-12-28T02:12:43;12.65;;;7.38;;
14760;SDS011;7472;45.396;5.272;2023-12-28T02:15:12;16.15;;;7.47;;
14760;SDS011;7472;45.396;5.272;2023-12-28T02:17:43;14.98;;;7.63;;
14760;SDS011;7472;45.396;5.272;2023-12-28T02:20:11;11.23;;;7.15;;
14760;SDS011;7472;45.396;5.272;2023-12-28T02:22:39;11.20;;;7.70;;
14760;SDS011;7472;45.396;5.272;2023-12-28T02:25:08;14.73;;;8.25;;
14760;SDS011;7472;45.396;5.272;2023-12-28T02:27:38;9.70;;;7.60;;
14760;SDS011;7472;45.396;5.272;2023-12-28T02:30:05;8.20;;;7.25;;
14760;SDS011;7472;45.396;5.272;2023-12-28T02:32:44;11.00;;;7.72;;
14760;SDS011;7472;45.396;5.272;2023-12-28T02:35:20;11.50;;;8.85;;
14760;SDS011;7472;45.396;5.272;2023-12-28T02:37:50;15.60;;;9.40;;
14760;SDS011;7472;45.396;5.272;2023-12-28T02:40:20;14.57;;;8.90;;
14760;SDS011;7472;45.396;5.272;2023-12-28T02:42:51;10.60;;;7.85;;
14760;SDS011;7472;45.396;5.272;2023-12-28T02:45:18;13.23;;;8.25;;
14760;SDS011;7472;45.396;5.272;2023-12-28T02:47:46;13.05;;;7.72;;
14760;SDS011;7472;45.396;5.272;2023-12-28T02:50:13;10.30;;;7.28;;
14760;SDS011;7472;45.396;5.272;2023-12-28T02:52:40;12.88;;;8.05;;
14760;SDS011;7472;45.396;5.272;2023-12-28T02:55:07;12.70;;;8.05;;
14760;SDS011;7472;45.396;5.272;2023-12-28T02:57:37;10.50;;;7.43;;
14760;SDS011;7472;45.396;5.272;2023-12-28T03:00:04;9.00;;;6.95;;
14760;SDS011;7472;45.396;5.272;2023-12-28T03:02:34;18.90;;;8.07;;
14760;SDS011;7472;45.396;5.272;2023-12-28T03:05:02;10.65;;;7.40;;
14760;SDS011;7472;45.396;5.272;2023-12-28T03:07:30;10.57;;;7.85;;
14760;SDS011;7472;45.396;5.272;2023-12-28T03:09:57;9.77;;;7.57;;
14760;SDS011;7472;45.396;5.272;2023-12-28T03:12:24;9.10;;;7.40;;
14760;SDS011;7472;45.396;5.272;2023-12-28T03:14:53;12.27;;;7.00;;
14760;SDS011;7472;45.396;5.272;2023-12-28T03:17:20;15.93;;;7.85;;
14760;SDS011;7472;45.396;5.272;2023-12-28T03:19:48;14.77;;;7.72;;
14760;SDS011;7472;45.396;5.272;2023-12-28T03:22:15;12.98;;;7.03;;
14760;SDS011;7472;45.396;5.272;2023-12-28T03:24:42;7.55;;;6.55;;
14760;SDS011;7472;45.396;5.272;2023-12-28T03:27:09;13.40;;;7.03;;
14760;SDS011;7472;45.396;5.272;2023-12-28T03:29:36;12.48;;;6.90;;
14760;SDS011;7472;45.396;5.272;2023-12-28T03:32:05;7.80;;;6.65;;
14760;SDS011;7472;45.396;5.272;2023-12-28T03:34:33;8.23;;;5.68;;
14760;SDS011;7472;45.396;5.272;2023-12-28T03:37:00;8.57;;;6.20;;
14760;SDS011;7472;45.396;5.272;2023-12-28T03:39:27;9.57;;;6.15;;
14760;SDS011;7472;45.396;5.272;2023-12-28T03:41:55;10.15;;;6.10;;
14760;SDS011;7472;45.396;5.272;2023-12-28T03:44:22;11.48;;;6.93;;
14760;SDS011;7472;45.396;5.272;2023-12-28T03:46:49;10.82;;;6.75;;
14760;SDS011;7472;45.396;5.272;2023-12-28T03:49:18;12.82;;;6.05;;
14760;SDS011;7472;45.396;5.272;2023-12-28T03:51:46;5.68;;;4.75;;
14760;SDS011;7472;45.396;5.272;2023-12-28T03:54:15;7.03;;;5.93;;
14760;SDS011;7472;45.396;5.272;2023-12-28T03:56:43;7.93;;;4.80;;
14760;SDS011;7472;45.396;5.272;2023-12-28T03:59:11;6.72;;;4.65;;
14760;SDS011;7472;45.396;5.272;2023-12-28T04:01:40;6.70;;;4.53;;
14760;SDS011;7472;45.396;5.272;2023-12-28T04:04:07;6.15;;;3.92;;
14760;SDS011;7472;45.396;5.272;2023-12-28T04:06:36;8.13;;;4.72;;
14760;SDS011;7472;45.396;5.272;2023-12-28T04:09:06;5.47;;;3.67;;
14760;SDS011;7472;45.396;5.272;2023-12-28T04:11:36;5.22;;;3.90;;
14760;SDS011;7472;45.396;5.272;2023-12-28T04:14:05;10.52;;;3.90;;
14760;SDS011;7472;45.396;5.272;2023-12-28T04:16:33;4.60;;;4.20;;
14760;SDS011;7472;45.396;5.272;2023-12-28T04:19:03;7.07;;;4.50;;
14760;SDS011;7472;45.396;5.272;2023-12-28T04:21:32;6.80;;;4.40;;
14760;SDS011;7472;45.396;5.272;2023-12-28T04:24:03;4.53;;;3.38;;
14760;SDS011;7472;45.396;5.272;2023-12-28T04:26:33;4.82;;;4.22;;
14760;SDS011;7472;45.396;5.272;2023-12-28T04:29:00;5.40;;;3.67;;
14760;SDS011;7472;45.396;5.272;2023-12-28T04:31:27;6.07;;;3.97;;
14760;SDS011;7472;45.396;5.272;2023-12-28T04:33:55;8.65;;;4.00;;
14760;SDS011;7472;45.396;5.272;2023-12-28T04:36:22;6.10;;;3.70;;
14760;SDS011;7472;45.396;5.272;2023-12-28T04:38:49;4.75;;;3.75;;
14760;SDS011;7472;45.396;5.272;2023-12-28T04:41:18;3.83;;;3.03;;
14760;SDS011;7472;45.396;5.272;2023-12-28T04:43:46;3.67;;;3.38;;
14760;SDS011;7472;45.396;5.272;2023-12-28T04:46:13;5.05;;;3.60;;
14760;SDS011;7472;45.396;5.272;2023-12-28T04:48:39;5.05;;;3.70;;
14760;SDS011;7472;45.396;5.272;2023-12-28T04:51:07;3.88;;;3.25;;
14760;SDS011;7472;45.396;5.272;2023-12-28T04:53:34;4.32;;;3.78;;
14760;SDS011;7472;45.396;5.272;2023-12-28T04:56:02;5.80;;;3.50;;
14760;SDS011;7472;45.396;5.272;2023-12-28T04:58:31;4.93;;;3.63;;
14760;SDS011;7472;45.396;5.272;2023-12-28T05:00:58;5.20;;;3.88;;
14760;SDS011;7472;45.396;5.272;2023-12-28T05:03:25;4.97;;;3.15;;
14760;SDS011;7472;45.396;5.272;2023-12-28T05:05:53;5.88;;;3.38;;
14760;SDS011;7472;45.396;5.272;2023-12-28T05:08:20;5.07;;;4.03;;
14760;SDS011;7472;45.396;5.272;2023-12-28T05:10:47;3.95;;;3.55;;
14760;SDS011;7472;45.396;5.272;2023-12-28T05:13:15;6.38;;;4.05;;
14760;SDS011;7472;45.396;5.272;2023-12-28T05:15:43;7.18;;;3.83;;
14760;SDS011;7472;45.396;5.272;2023-12-28T05:18:11;6.93;;;4.60;;
14760;SDS011;7472;45.396;5.272;2023-12-28T05:20:38;6.95;;;4.05;;
14760;SDS011;7472;45.396;5.272;2023-12-28T05:23:06;8.00;;;4.10;;
14760;SDS011;7472;45.396;5.272;2023-12-28T05:25:33;5.13;;;4.03;;
14760;SDS011;7472;45.396;5.272;2023-12-28T05:28:00;4.82;;;4.30;;
14760;SDS011;7472;45.396;5.272;2023-12-28T05:30:28;4.22;;;3.83;;
14760;SDS011;7472;45.396;5.272;2023-12-28T05:32:56;7.50;;;4.82;;
14760;SDS011;7472;45.396;5.272;2023-12-28T05:35:24;6.65;;;4.28;;
14760;SDS011;7472;45.396;5.272;2023-12-28T05:37:51;5.03;;;4.15;;
14760;SDS011;7472;45.396;5.272;2023-12-28T05:40:18;5.18;;;3.78;;
14760;SDS011;7472;45.396;5.272;2023-12-28T05:42:46;5.85;;;4.22;;
14760;SDS011;7472;45.396;5.272;2023-12-28T05:45:13;5.38;;;4.72;;
14760;SDS011;7472;45.396;5.272;2023-12-28T05:47:41;5.63;;;4.63;;
14760;SDS011;7472;45.396;5.272;2023-12-28T05:50:09;5.55;;;4.78;;
14760;SDS011;7472;45.396;5.272;2023-12-28T05:52:37;5.28;;;3.92;;
14760;SDS011;7472;45.396;5.272;2023-12-28T05:55:04;7.25;;;4.57;;
14760;SDS011;7472;45.396;5.272;2023-12-28T05:57:32;6.15;;;4.40;;
14760;SDS011;7472;45.396;5.272;2023-12-28T05:59:59;5.55;;;4.13;;
14760;SDS011;7472;45.396;5.272;2023-12-28T06:02:29;5.43;;;3.95;;
14760;SDS011;7472;45.396;5.272;2023-12-28T06:04:56;4.78;;;4.10;;
14760;SDS011;7472;45.396;5.272;2023-12-28T06:07:25;4.82;;;3.70;;
14760;SDS011;7472;45.396;5.272;2023-12-28T06:09:52;4.22;;;3.83;;
14760;SDS011;7472;45.396;5.272;2023-12-28T06:12:20;7.88;;;4.93;;
14760;SDS011;7472;45.396;5.272;2023-12-28T06:14:47;6.65;;;4.90;;
14760;SDS011;7472;45.396;5.272;2023-12-28T06:17:15;6.22;;;4.60;;
14760;SDS011;7472;45.396;5.272;2023-12-28T06:19:43;6.22;;;4.93;;
14760;SDS011;7472;45.396;5.272;2023-12-28T06:22:11;6.25;;;4.88;;
14760;SDS011;7472;45.396;5.272;2023-12-28T06:24:40;9.43;;;4.65;;
14760;SDS011;7472;45.396;5.272;2023-12-28T06:27:07;5.07;;;4.50;;
14760;SDS011;7472;45.396;5.272;2023-12-28T06:29:34;5.47;;;4.65;;
14760;SDS011;7472;45.396;5.272;2023-12-28T06:32:02;8.32;;;4.55;;
14760;SDS011;7472;45.396;5.272;2023-12-28T06:34:29;5.85;;;4.10;;
14760;SDS011;7472;45.396;5.272;2023-12-28T06:36:56;6.18;;;4.55;;
14760;SDS011;7472;45.396;5.272;2023-12-28T06:39:26;6.93;;;4.20;;
14760;SDS011;7472;45.396;5.272;2023-12-28T06:41:54;8.43;;;4.93;;
14760;SDS011;7472;45.396;5.272;2023-12-28T06:44:22;5.45;;;4.85;;
14760;SDS011;7472;45.396;5.272;2023-12-28T06:46:49;5.93;;;4.85;;
14760;SDS011;7472;45.396;5.272;2023-12-28T06:49:16;11.77;;;5.30;;
14760;SDS011;7472;45.396;5.272;2023-12-28T06:51:44;8.48;;;5.00;;
14760;SDS011;7472;45.396;5.272;2023-12-28T06:54:11;8.02;;;5.15;;
14760;SDS011;7472;45.396;5.272;2023-12-28T06:56:38;7.55;;;5.20;;
14760;SDS011;7472;45.396;5.272;2023-12-28T06:59:07;6.82;;;4.60;;
14760;SDS011;7472;45.396;5.272;2023-12-28T07:01:37;5.30;;;4.75;;
14760;SDS011;7472;45.396;5.272;2023-12-28T07:04:04;6.55;;;5.50;;
14760;SDS011;7472;45.396;5.272;2023-12-28T07:06:31;6.50;;;5.22;;
14760;SDS011;7472;45.396;5.272;2023-12-28T07:08:59;5.63;;;5.07;;
14760;SDS011;7472;45.396;5.272;2023-12-28T07:11:27;5.30;;;4.80;;
14760;SDS011;7472;45.396;5.272;2023-12-28T07:13:54;7.80;;;5.10;;
14760;SDS011;7472;45.396;5.272;2023-12-28T07:16:23;7.95;;;5.10;;
14760;SDS011;7472;45.396;5.272;2023-12-28T07:18:51;9.55;;;6.00;;
14760;SDS011;7472;45.396;5.272;2023-12-28T07:21:18;7.68;;;5.60;;
14760;SDS011;7472;45.396;5.272;2023-12-28T07:23:46;9.98;;;6.00;;
14760;SDS011;7472;45.396;5.272;2023-12-28T07:26:14;6.25;;;5.32;;
14760;SDS011;7472;45.396;5.272;2023-12-28T07:28:41;7.40;;;5.65;;
14760;SDS011;7472;45.396;5.272;2023-12-28T07:31:10;10.88;;;4.93;;
14760;SDS011;7472;45.396;5.272;2023-12-28T07:33:39;6.25;;;4.65;;
14760;SDS011;7472;45.396;5.272;2023-12-28T07:36:06;8.77;;;5.07;;
14760;SDS011;7472;45.396;5.272;2023-12-28T07:38:33;6.82;;;5.28;;
14760;SDS011;7472;45.396;5.272;2023-12-28T07:41:01;6.70;;;5.40;;
14760;SDS011;7472;45.396;5.272;2023-12-28T07:43:28;7.32;;;4.85;;
14760;SDS011;7472;45.396;5.272;2023-12-28T07:45:55;6.20;;;4.90;;
14760;SDS011;7472;45.396;5.272;2023-12-28T07:48:23;8.82;;;4.78;;
14760;SDS011;7472;45.396;5.272;2023-12-28T07:50:52;6.63;;;4.95;;
14760;SDS011;7472;45.396;5.272;2023-12-28T07:53:19;7.28;;;4.90;;
14760;SDS011;7472;45.396;5.272;2023-12-28T07:55:46;5.82;;;4.50;;
14760;SDS011;7472;45.396;5.272;2023-12-28T07:58:14;5.05;;;4.55;;
14760;SDS011;7472;45.396;5.272;2023-12-28T08:00:41;5.85;;;4.25;;
14760;SDS011;7472;45.396;5.272;2023-12-28T08:03:08;6.03;;;4.07;;
14760;SDS011;7472;45.396;5.272;2023-12-28T08:05:37;7.63;;;4.82;;
14760;SDS011;7472;45.396;5.272;2023-12-28T08:08:06;6.18;;;3.45;;
14760;SDS011;7472;45.396;5.272;2023-12-28T08:10:33;7.78;;;3.97;;
14760;SDS011;7472;45.396;5.272;2023-12-28T08:13:00;5.63;;;4.28;;
14760;SDS011;7472;45.396;5.272;2023-12-28T08:15:28;5.53;;;4.35;;
14760;SDS011;7472;45.396;5.272;2023-12-28T08:17:55;5.93;;;4.53;;
14760;SDS011;7472;45.396;5.272;2023-12-28T08:20:22;6.07;;;3.95;;
14760;SDS011;7472;45.396;5.272;2023-12-28T08:22:50;5.18;;;4.10;;
14760;SDS011;7472;45.396;5.272;2023-12-28T08:25:19;7.25;;;4.15;;
14760;SDS011;7472;45.396;5.272;2023-12-28T08:27:47;6.80;;;4.90;;
14760;SDS011;7472;45.396;5.272;2023-12-28T08:30:15;6.53;;;4.55;;
14760;SDS011;7472;45.396;5.272;2023-12-28T08:32:42;8.00;;;4.35;;
14760;SDS011;7472;45.396;5.272;2023-12-28T08:35:09;5.18;;;4.68;;
14760;SDS011;7472;45.396;5.272;2023-12-28T08:37:37;7.15;;;4.53;;
14760;SDS011;7472;45.396;5.272;2023-12-28T08:40:05;6.90;;;4.30;;
14760;SDS011;7472;45.396;5.272;2023-12-28T08:42:34;6.53;;;3.95;;
14760;SDS011;7472;45.396;5.272;2023-12-28T08:45:01;5.50;;;4.15;;
14760;SDS011;7472;45.396;5.272;2023-12-28T08:47:28;4.10;;;3.70;;
14760;SDS011;7472;45.396;5.272;2023-12-28T08:49:56;6.15;;;3.55;;
14760;SDS011;7472;45.396;5.272;2023-12-28T08:52:23;5.35;;;3.33;;
14760;SDS011;7472;45.396;5.272;2023-12-28T08:54:50;5.18;;;3.53;;
14760;SDS011;7472;45.396;5.272;2023-12-28T08:57:18;5.00;;;3.35;;
14760;SDS011;7472;45.396;5.272;2023-12-28T08:59:47;7.47;;;3.97;;
14760;SDS011;7472;45.396;5.272;2023-12-28T09:02:14;7.03;;;4.22;;
14760;SDS011;7472;45.396;5.272;2023-12-28T09:04:42;3.80;;;3.35;;
14760;SDS011;7472;45.396;5.272;2023-12-28T09:07:09;4.50;;;3.40;;
14760;SDS011;7472;45.396;5.272;2023-12-28T09:09:36;4.65;;;3.03;;
14760;SDS011;7472;45.396;5.272;2023-12-28T09:12:04;7.28;;;3.40;;
14760;SDS011;7472;45.396;5.272;2023-12-28T09:14:31;4.75;;;3.28;;
14760;SDS011;7472;45.396;5.272;2023-12-28T09:17:00;10.73;;;4.20;;
14760;SDS011;7472;45.396;5.272;2023-12-28T09:19:27;4.97;;;3.08;;
14760;SDS011;7472;45.396;5.272;2023-12-28T09:21:55;6.45;;;3.10;;
14760;SDS011;7472;45.396;5.272;2023-12-28T09:24:22;19.90;;;4.47;;
14760;SDS011;7472;45.396;5.272;2023-12-28T09:26:49;5.78;;;2.00;;
14760;SDS011;7472;45.396;5.272;2023-12-28T09:29:16;4.32;;;3.35;;
14760;SDS011;7472;45.396;5.272;2023-12-28T09:31:45;11.40;;;3.63;;
14760;SDS011;7472;45.396;5.272;2023-12-28T09:34:14;3.28;;;2.97;;
14760;SDS011;7472;45.396;5.272;2023-12-28T09:36:41;9.93;;;3.15;;
14760;SDS011;7472;45.396;5.272;2023-12-28T09:39:09;6.97;;;3.33;;
14760;SDS011;7472;45.396;5.272;2023-12-28T09:41:37;2.90;;;2.58;;
14760;SDS011;7472;45.396;5.272;2023-12-28T09:44:07;3.00;;;2.35;;
14760;SDS011;7472;45.396;5.272;2023-12-28T09:46:35;4.35;;;2.42;;
14760;SDS011;7472;45.396;5.272;2023-12-28T09:49:04;6.88;;;3.10;;
14760;SDS011;7472;45.396;5.272;2023-12-28T09:51:33;4.85;;;2.47;;
14760;SDS011;7472;45.396;5.272;2023-12-28T09:54:01;3.45;;;2.80;;
14760;SDS011;7472;45.396;5.272;2023-12-28T09:56:30;3.05;;;2.72;;
14760;SDS011;7472;45.396;5.272;2023-12-28T09:58:57;10.40;;;3.38;;
14760;SDS011;7472;45.396;5.272;2023-12-28T10:01:25;11.10;;;3.50;;
14760;SDS011;7472;45.396;5.272;2023-12-28T10:03:53;5.20;;;3.08;;
14760;SDS011;7472;45.396;5.272;2023-12-28T10:06:20;7.53;;;3.35;;
14760;SDS011;7472;45.396;5.272;2023-12-28T10:08:49;3.38;;;2.85;;
14760;SDS011;7472;45.396;5.272;2023-12-28T10:11:17;3.55;;;2.42;;
14760;SDS011;7472;45.396;5.272;2023-12-28T10:13:45;5.70;;;3.60;;
14760;SDS011;7472;45.396;5.272;2023-12-28T10:16:12;5.50;;;2.63;;
14760;SDS011;7472;45.396;5.272;2023-12-28T10:18:40;5.10;;;2.90;;
14760;SDS011;7472;45.396;5.272;2023-12-28T10:21:08;4.10;;;2.65;;
14760;SDS011;7472;45.396;5.272;2023-12-28T10:23:36;2.72;;;2.53;;
14760;SDS011;7472;45.396;5.272;2023-12-28T10:26:05;4.85;;;3.13;;
14760;SDS011;7472;45.396;5.272;2023-12-28T10:28:32;4.45;;;2.85;;
14760;SDS011;7472;45.396;5.272;2023-12-28T10:30:59;3.50;;;3.20;;
14760;SDS011;7472;45.396;5.272;2023-12-28T10:33:27;4.00;;;3.20;;
14760;SDS011;7472;45.396;5.272;2023-12-28T10:35:54;4.07;;;2.88;;
14760;SDS011;7472;45.396;5.272;2023-12-28T10:38:25;4.18;;;2.45;;
14760;SDS011;7472;45.396;5.272;2023-12-28T10:40:52;4.35;;;2.90;;
14760;SDS011;7472;45.396;5.272;2023-12-28T10:43:21;4.35;;;2.95;;
14760;SDS011;7472;45.396;5.272;2023-12-28T10:45:50;3.15;;;2.38;;
14760;SDS011;7472;45.396;5.272;2023-12-28T10:48:20;4.40;;;2.80;;
14760;SDS011;7472;45.396;5.272;2023-12-28T10:50:49;4.88;;;2.72;;
14760;SDS011;7472;45.396;5.272;2023-12-28T10:53:21;4.55;;;2.30;;
14760;SDS011;7472;45.396;5.272;2023-12-28T10:55:53;2.88;;;2.60;;
14760;SDS011;7472;45.396;5.272;2023-12-28T10:58:30;2.80;;;2.50;;
14760;SDS011;7472;45.396;5.272;2023-12-28T11:01:02;2.40;;;2.20;;
14760;SDS011;7472;45.396;5.272;2023-12-28T11:03:34;3.40;;;2.58;;
14760;SDS011;7472;45.396;5.272;2023-12-28T11:06:04;3.13;;;2.63;;
14760;SDS011;7472;45.396;5.272;2023-12-28T11:08:32;3.97;;;2.75;;
14760;SDS011;7472;45.396;5.272;2023-12-28T11:10:59;3.22;;;2.42;;
14760;SDS011;7472;45.396;5.272;2023-12-28T11:13:30;3.85;;;2.90;;
14760;SDS011;7472;45.396;5.272;2023-12-28T11:15:59;4.22;;;2.78;;
14760;SDS011;7472;45.396;5.272;2023-12-28T11:18:26;3.72;;;2.42;;
14760;SDS011;7472;45.396;5.272;2023-12-28T11:20:55;3.92;;;3.42;;
14760;SDS011;7472;45.396;5.272;2023-12-28T11:23:24;3.10;;;2.50;;
14760;SDS011;7472;45.396;5.272;2023-12-28T11:25:51;4.43;;;3.03;;
14760;SDS011;7472;45.396;5.272;2023-12-28T11:28:18;3.17;;;2.33;;
14760;SDS011;7472;45.396;5.272;2023-12-28T11:30:48;3.35;;;3.00;;
14760;SDS011;7472;45.396;5.272;2023-12-28T11:33:15;5.45;;;2.60;;
14760;SDS011;7472;45.396;5.272;2023-12-28T11:35:42;5.40;;;2.80;;
14760;SDS011;7472;45.396;5.272;2023-12-28T11:38:11;3.28;;;2.47;;
14760;SDS011;7472;45.396;5.272;2023-12-28T11:40:41;2.88;;;2.58;;
14760;SDS011;7472;45.396;5.272;2023-12-28T11:43:15;2.47;;;2.15;;
14760;SDS011;7472;45.396;5.272;2023-12-28T11:45:49;3.72;;;2.42;;
14760;SDS011;7472;45.396;5.272;2023-12-28T11:48:23;2.40;;;2.20;;
14760;SDS011;7472;45.396;5.272;2023-12-28T11:50:52;2.83;;;2.63;;
14760;SDS011;7472;45.396;5.272;2023-12-28T11:53:21;4.53;;;2.80;;
14760;SDS011;7472;45.396;5.272;2023-12-28T11:55:49;3.22;;;2.47;;
14760;SDS011;7472;45.396;5.272;2023-12-28T11:58:17;4.47;;;2.10;;
14760;SDS011;7472;45.396;5.272;2023-12-28T12:00:44;2.67;;;2.45;;
14760;SDS011;7472;45.396;5.272;2023-12-28T12:03:13;4.13;;;2.58;;
14760;SDS011;7472;45.396;5.272;2023-12-28T12:05:40;2.72;;;2.47;;
14760;SDS011;7472;45.396;5.272;2023-12-28T12:08:09;3.10;;;2.45;;
14760;SDS011;7472;45.396;5.272;2023-12-28T12:10:39;3.78;;;2.55;;
14760;SDS011;7472;45.396;5.272;2023-12-28T12:13:07;3.47;;;2.60;;
14760;SDS011;7472;45.396;5.272;2023-12-28T12:15:34;2.55;;;2.35;;
14760;SDS011;7472;45.396;5.272;2023-12-28T12:18:02;2.47;;;2.28;;
14760;SDS011;7472;45.396;5.272;2023-12-28T12:20:31;8.07;;;2.55;;
14760;SDS011;7472;45.396;5.272;2023-12-28T12:22:59;3.28;;;2.25;;
14760;SDS011;7472;45.396;5.272;2023-12-28T12:25:28;2.53;;;2.30;;
14760;SDS011;7472;45.396;5.272;2023-12-28T12:27:56;4.20;;;2.30;;
14760;SDS011;7472;45.396;5.272;2023-12-28T12:30:23;2.58;;;2.38;;
14760;SDS011;7472;45.396;5.272;2023-12-28T12:32:50;3.03;;;2.05;;
14760;SDS011;7472;45.396;5.272;2023-12-28T12:35:18;2.40;;;2.20;;
14760;SDS011;7472;45.396;5.272;2023-12-28T12:37:48;2.97;;;2.70;;
14760;SDS011;7472;45.396;5.272;2023-12-28T12:40:16;3.03;;;2.67;;
14760;SDS011;7472;45.396;5.272;2023-12-28T12:42:51;2.30;;;2.05;;
14760;SDS011;7472;45.396;5.272;2023-12-28T12:45:19;3.53;;;2.13;;
14760;SDS011;7472;45.396;5.272;2023-12-28T12:47:47;3.92;;;2.78;;
14760;SDS011;7472;45.396;5.272;2023-12-28T12:50:15;3.20;;;2.55;;
14760;SDS011;7472;45.396;5.272;2023-12-28T12:52:42;3.33;;;3.03;;
14760;SDS011;7472;45.396;5.272;2023-12-28T12:55:12;3.95;;;3.10;;
14760;SDS011;7472;45.396;5.272;2023-12-28T12:57:39;2.95;;;2.70;;
14760;SDS011;7472;45.396;5.272;2023-12-28T13:00:08;3.67;;;2.63;;
14760;SDS011;7472;45.396;5.272;2023-12-28T13:02:36;3.88;;;2.78;;
14760;SDS011;7472;45.396;5.272;2023-12-28T13:05:04;5.30;;;3.95;;
14760;SDS011;7472;45.396;5.272;2023-12-28T13:07:33;6.20;;;3.38;;
14760;SDS011;7472;45.396;5.272;2023-12-28T13:10:01;3.40;;;3.10;;
14760;SDS011;7472;45.396;5.272;2023-12-28T13:12:30;5.68;;;3.15;;
14760;SDS011;7472;45.396;5.272;2023-12-28T13:14:57;3.92;;;3.13;;
14760;SDS011;7472;45.396;5.272;2023-12-28T13:17:25;3.38;;;2.72;;
14760;SDS011;7472;45.396;5.272;2023-12-28T13:19:52;5.22;;;3.00;;
14760;SDS011;7472;45.396;5.272;2023-12-28T13:22:19;3.33;;;2.80;;
14760;SDS011;7472;45.396;5.272;2023-12-28T13:24:47;5.97;;;3.63;;
14760;SDS011;7472;45.396;5.272;2023-12-28T13:27:14;4.82;;;3.88;;
14760;SDS011;7472;45.396;5.272;2023-12-28T13:29:43;4.43;;;3.67;;
14760;SDS011;7472;45.396;5.272;2023-12-28T13:32:10;4.47;;;2.85;;
14760;SDS011;7472;45.396;5.272;2023-12-28T13:34:37;3.50;;;3.20;;
14760;SDS011;7472;45.396;5.272;2023-12-28T13:37:05;4.38;;;3.20;;
14760;SDS011;7472;45.396;5.272;2023-12-28T13:39:32;5.90;;;3.78;;
14760;SDS011;7472;45.396;5.272;2023-12-28T13:42:04;6.22;;;3.55;;
14760;SDS011;7472;45.396;5.272;2023-12-28T13:44:32;5.93;;;3.10;;
14760;SDS011;7472;45.396;5.272;2023-12-28T13:47:01;5.00;;;3.33;;
14760;SDS011;7472;45.396;5.272;2023-12-28T13:49:30;7.50;;;3.13;;
14760;SDS011;7472;45.396;5.272;2023-12-28T13:51:58;4.53;;;3.38;;
14760;SDS011;7472;45.396;5.272;2023-12-28T13:54:25;3.50;;;3.20;;
14760;SDS011;7472;45.396;5.272;2023-12-28T13:56:53;4.20;;;3.53;;
14760;SDS011;7472;45.396;5.272;2023-12-28T13:59:22;3.80;;;3.38;;
14760;SDS011;7472;45.396;5.272;2023-12-28T14:01:50;5.80;;;3.60;;
14760;SDS011;7472;45.396;5.272;2023-12-28T14:04:18;4.07;;;3.67;;
14760;SDS011;7472;45.396;5.272;2023-12-28T14:06:46;4.90;;;3.83;;
14760;SDS011;7472;45.396;5.272;2023-12-28T14:09:13;5.18;;;4.10;;
14760;SDS011;7472;45.396;5.272;2023-12-28T14:11:45;3.80;;;3.50;;
14760;SDS011;7472;45.396;5.272;2023-12-28T14:14:12;3.83;;;3.42;;
14760;SDS011;7472;45.396;5.272;2023-12-28T14:16:39;7.85;;;3.53;;
14760;SDS011;7472;45.396;5.272;2023-12-28T14:19:07;5.28;;;4.10;;
14760;SDS011;7472;45.396;5.272;2023-12-28T14:21:37;4.35;;;3.28;;
14760;SDS011;7472;45.396;5.272;2023-12-28T14:24:05;4.07;;;3.30;;
14760;SDS011;7472;45.396;5.272;2023-12-28T14:26:32;3.45;;;3.15;;
14760;SDS011;7472;45.396;5.272;2023-12-28T14:29:00;7.80;;;3.97;;
14760;SDS011;7472;45.396;5.272;2023-12-28T14:31:30;6.15;;;4.30;;
14760;SDS011;7472;45.396;5.272;2023-12-28T14:33:58;4.63;;;3.67;;
14760;SDS011;7472;45.396;5.272;2023-12-28T14:36:27;6.47;;;5.00;;
14760;SDS011;7472;45.396;5.272;2023-12-28T14:38:58;7.93;;;6.07;;
14760;SDS011;7472;45.396;5.272;2023-12-28T14:41:26;4.97;;;4.32;;
14760;SDS011;7472;45.396;5.272;2023-12-28T14:43:55;6.53;;;4.55;;
14760;SDS011;7472;45.396;5.272;2023-12-28T14:46:22;5.57;;;4.55;;
14760;SDS011;7472;45.396;5.272;2023-12-28T14:48:50;8.15;;;4.40;;
14760;SDS011;7472;45.396;5.272;2023-12-28T14:51:17;5.80;;;4.35;;
14760;SDS011;7472;45.396;5.272;2023-12-28T14:53:44;6.70;;;4.40;;
14760;SDS011;7472;45.396;5.272;2023-12-28T14:56:13;5.55;;;3.85;;
14760;SDS011;7472;45.396;5.272;2023-12-28T14:58:41;7.75;;;4.85;;
14760;SDS011;7472;45.396;5.272;2023-12-28T15:01:10;4.90;;;4.20;;
14760;SDS011;7472;45.396;5.272;2023-12-28T15:03:38;5.55;;;3.88;;